world map with JKG marked

JKG - Airport

This information may not be accurate or current and is not valid for navigation or flight planning. No warranty of fitness for any purpose is made or implied.

flag of Sweden

Donate via PayPal

Additional information is available on the NEW Great Circle Mapper

Location
City:  Jönköping, Jönköpings län, Sweden
ICAO / IATA:ESGJ / JKG

Details
Type:Airport (Aerodrome, Airfield)
Use:Public/Civil
Latitude:57°45'27"N (57.757594)
Longitude:14°04'07"E (14.068731)
Datum:WGS 1984
Elevation:741 ft (226 m)
Runways:2
Longest:7228 × 148 ft (2203 × 45 m)

Time
Timezone:UTC+1 (DST+4)
Local Time:

Weather
METAR:ESGJ  041350Z 18009KT 8000 -SN BKN009 M00/M01 Q1015 R19/72//70
TAF:ESGJ  (expired)

Related Locations
Nearby:
Farthest:CHT: 11365 mi / 18291 km
Waitangi [Tuuta], CIT, NZ

Find:

   beyond  
but within

Other Information
Maps:
Sources:

  


 


Great Circle Mapper   Great Circle Mapper
Great Circle Mapper FAQ   Great Circle Mapper FAQ
  Karl's Home Page
KLS²   KLS² Home
   GC on Facebook
Airlines of the World   Airlines of the World
Donate via PayPal


Copyright © 2004-2020, Karl L. Swartz. All rights reserved.
All trademarks mentioned herein belong to their respective owners.

Please see credits for attribution and copyright information.

Karl Swartz <karl@kls2.com>
  Powered by FreeBSD
Valid HTML 4.01!
Labeled with ICRA
hCard Microformat
Geo Microformat